sensor_id;sensor_type;location;lat;lon;timestamp;P1;durP1;ratioP1;P2;durP2;ratioP2
50649;SDS011;36621;60.058;30.346;2023-04-01T00:07:49;7.78;;;5.60;;
50649;SDS011;36621;60.058;30.346;2023-04-01T00:51:38;6.63;;;4.50;;
50649;SDS011;36621;60.058;30.346;2023-04-01T01:08:12;5.25;;;4.22;;
50649;SDS011;36621;60.058;30.346;2023-04-01T02:01:48;5.80;;;4.65;;
50649;SDS011;36621;60.058;30.346;2023-04-01T02:19:24;6.50;;;5.43;;
50649;SDS011;36621;60.058;30.346;2023-04-01T03:34:11;5.90;;;4.50;;
50649;SDS011;36621;60.058;30.346;2023-04-01T03:41:43;4.68;;;3.90;;
50649;SDS011;36621;60.058;30.346;2023-04-01T03:49:16;6.88;;;5.13;;
50649;SDS011;36621;60.058;30.346;2023-04-01T03:56:49;4.60;;;4.00;;
50649;SDS011;36621;60.058;30.346;2023-04-01T04:04:22;13.32;;;5.10;;
50649;SDS011;36621;60.058;30.346;2023-04-01T04:11:54;5.32;;;4.05;;
50649;SDS011;36621;60.058;30.346;2023-04-01T04:19:30;5.43;;;4.15;;
50649;SDS011;36621;60.058;30.346;2023-04-01T04:27:05;6.00;;;4.50;;
50649;SDS011;36621;60.058;30.346;2023-04-01T04:34:39;5.25;;;4.10;;
50649;SDS011;36621;60.058;30.346;2023-04-01T04:42:12;5.25;;;4.40;;
50649;SDS011;36621;60.058;30.346;2023-04-01T04:49:45;5.10;;;4.10;;
50649;SDS011;36621;60.058;30.346;2023-04-01T04:57:17;7.30;;;4.20;;
50649;SDS011;36621;60.058;30.346;2023-04-01T05:05:18;3.95;;;3.05;;
50649;SDS011;36621;60.058;30.346;2023-04-01T08:28:13;6.10;;;4.18;;
50649;SDS011;36621;60.058;30.346;2023-04-01T11:03:44;11.50;;;5.30;;
50649;SDS011;36621;60.058;30.346;2023-04-01T11:11:54;6.47;;;3.40;;
50649;SDS011;36621;60.058;30.346;2023-04-01T11:28:14;7.45;;;3.58;;
50649;SDS011;36621;60.058;30.346;2023-04-01T11:36:12;4.97;;;3.88;;
50649;SDS011;36621;60.058;30.346;2023-04-01T11:43:57;4.78;;;2.88;;
50649;SDS011;36621;60.058;30.346;2023-04-01T12:00:12;4.63;;;2.53;;
50649;SDS011;36621;60.058;30.346;2023-04-01T12:16:07;4.05;;;2.63;;
50649;SDS011;36621;60.058;30.346;2023-04-01T12:23:55;5.82;;;2.22;;
50649;SDS011;36621;60.058;30.346;2023-04-01T12:31:50;5.07;;;2.33;;
50649;SDS011;36621;60.058;30.346;2023-04-01T12:39:41;3.95;;;2.30;;
50649;SDS011;36621;60.058;30.346;2023-04-01T12:47:34;9.07;;;2.65;;
50649;SDS011;36621;60.058;30.346;2023-04-01T13:03:50;4.68;;;2.53;;
50649;SDS011;36621;60.058;30.346;2023-04-01T13:11:41;5.00;;;2.00;;
50649;SDS011;36621;60.058;30.346;2023-04-01T13:19:27;4.90;;;2.53;;
50649;SDS011;36621;60.058;30.346;2023-04-01T13:27:08;4.90;;;2.20;;
50649;SDS011;36621;60.058;30.346;2023-04-01T13:34:53;6.07;;;3.22;;
50649;SDS011;36621;60.058;30.346;2023-04-01T13:42:40;2.47;;;1.80;;
50649;SDS011;36621;60.058;30.346;2023-04-01T13:50:33;3.05;;;1.75;;
50649;SDS011;36621;60.058;30.346;2023-04-01T13:58:19;3.53;;;1.45;;
50649;SDS011;36621;60.058;30.346;2023-04-01T14:06:11;2.63;;;1.70;;
50649;SDS011;36621;60.058;30.346;2023-04-01T14:13:52;3.60;;;2.00;;
50649;SDS011;36621;60.058;30.346;2023-04-01T14:21:36;2.17;;;1.45;;
50649;SDS011;36621;60.058;30.346;2023-04-01T14:29:18;2.33;;;1.20;;
50649;SDS011;36621;60.058;30.346;2023-04-01T14:37:01;1.33;;;1.02;;
50649;SDS011;36621;60.058;30.346;2023-04-01T14:44:57;2.42;;;1.65;;
50649;SDS011;36621;60.058;30.346;2023-04-01T14:52:42;2.65;;;1.30;;
50649;SDS011;36621;60.058;30.346;2023-04-01T15:00:24;2.28;;;1.33;;
50649;SDS011;36621;60.058;30.346;2023-04-01T15:08:06;4.93;;;1.83;;
50649;SDS011;36621;60.058;30.346;2023-04-01T15:15:59;2.58;;;1.75;;
50649;SDS011;36621;60.058;30.346;2023-04-01T15:24:03;3.45;;;2.15;;
50649;SDS011;36621;60.058;30.346;2023-04-01T15:31:48;4.43;;;1.90;;
50649;SDS011;36621;60.058;30.346;2023-04-01T15:39:41;5.22;;;2.55;;
50649;SDS011;36621;60.058;30.346;2023-04-01T15:47:35;5.85;;;2.13;;
50649;SDS011;36621;60.058;30.346;2023-04-01T15:55:17;7.72;;;2.35;;
50649;SDS011;36621;60.058;30.346;2023-04-01T16:03:09;4.55;;;2.17;;
50649;SDS011;36621;60.058;30.346;2023-04-01T16:10:57;3.37;;;1.87;;
50649;SDS011;36621;60.058;30.346;2023-04-01T16:26:53;5.82;;;2.30;;
50649;SDS011;36621;60.058;30.346;2023-04-01T16:34:32;4.35;;;1.90;;
50649;SDS011;36621;60.058;30.346;2023-04-01T16:42:16;6.28;;;2.55;;
50649;SDS011;36621;60.058;30.346;2023-04-01T16:49:58;4.10;;;2.03;;
50649;SDS011;36621;60.058;30.346;2023-04-01T16:57:43;7.97;;;2.55;;
50649;SDS011;36621;60.058;30.346;2023-04-01T17:05:20;3.53;;;1.80;;
50649;SDS011;36621;60.058;30.346;2023-04-01T17:13:18;5.10;;;2.55;;
50649;SDS011;36621;60.058;30.346;2023-04-01T17:21:02;5.60;;;2.78;;
50649;SDS011;36621;60.058;30.346;2023-04-01T17:28:44;4.97;;;2.63;;
50649;SDS011;36621;60.058;30.346;2023-04-01T17:36:24;4.70;;;2.53;;
50649;SDS011;36621;60.058;30.346;2023-04-01T17:44:12;3.67;;;1.80;;
50649;SDS011;36621;60.058;30.346;2023-04-01T17:51:54;5.20;;;2.85;;
50649;SDS011;36621;60.058;30.346;2023-04-01T17:59:33;5.90;;;3.75;;
50649;SDS011;36621;60.058;30.346;2023-04-01T18:14:59;6.25;;;3.75;;
50649;SDS011;36621;60.058;30.346;2023-04-01T18:22:44;6.18;;;4.20;;
50649;SDS011;36621;60.058;30.346;2023-04-01T18:30:26;8.02;;;4.50;;
50649;SDS011;36621;60.058;30.346;2023-04-01T18:38:04;10.32;;;6.82;;
50649;SDS011;36621;60.058;30.346;2023-04-01T18:45:56;18.95;;;10.30;;
50649;SDS011;36621;60.058;30.346;2023-04-01T18:53:44;6.30;;;3.78;;
50649;SDS011;36621;60.058;30.346;2023-04-01T19:01:31;10.57;;;3.42;;
50649;SDS011;36621;60.058;30.346;2023-04-01T19:09:43;6.35;;;3.38;;
50649;SDS011;36621;60.058;30.346;2023-04-01T19:17:32;5.03;;;3.20;;
50649;SDS011;36621;60.058;30.346;2023-04-01T19:25:23;6.53;;;3.40;;
50649;SDS011;36621;60.058;30.346;2023-04-01T19:33:16;10.88;;;5.57;;
50649;SDS011;36621;60.058;30.346;2023-04-01T19:41:10;14.98;;;9.00;;
50649;SDS011;36621;60.058;30.346;2023-04-01T19:49:23;7.18;;;4.38;;
50649;SDS011;36621;60.058;30.346;2023-04-01T19:57:23;4.57;;;2.83;;
50649;SDS011;36621;60.058;30.346;2023-04-01T20:05:04;5.00;;;3.13;;
50649;SDS011;36621;60.058;30.346;2023-04-01T20:12:58;8.95;;;3.60;;
50649;SDS011;36621;60.058;30.346;2023-04-01T20:28:11;12.25;;;3.63;;
50649;SDS011;36621;60.058;30.346;2023-04-01T20:36:00;8.40;;;3.45;;
50649;SDS011;36621;60.058;30.346;2023-04-01T20:51:45;5.53;;;2.88;;
50649;SDS011;36621;60.058;30.346;2023-04-01T20:59:31;3.50;;;2.47;;
50649;SDS011;36621;60.058;30.346;2023-04-01T21:07:25;5.90;;;2.70;;
50649;SDS011;36621;60.058;30.346;2023-04-01T21:23:13;3.20;;;2.30;;
50649;SDS011;36621;60.058;30.346;2023-04-01T21:31:03;3.63;;;2.30;;
50649;SDS011;36621;60.058;30.346;2023-04-01T21:38:48;3.92;;;2.45;;
50649;SDS011;36621;60.058;30.346;2023-04-01T21:46:50;3.10;;;2.30;;
50649;SDS011;36621;60.058;30.346;2023-04-01T22:10:44;2.97;;;2.00;;
50649;SDS011;36621;60.058;30.346;2023-04-01T22:18:26;4.18;;;2.72;;
50649;SDS011;36621;60.058;30.346;2023-04-01T22:26:09;2.75;;;2.10;;
50649;SDS011;36621;60.058;30.346;2023-04-01T22:33:50;2.72;;;1.85;;
50649;SDS011;36621;60.058;30.346;2023-04-01T22:41:33;3.83;;;2.35;;
50649;SDS011;36621;60.058;30.346;2023-04-01T22:49:19;5.07;;;2.30;;
50649;SDS011;36621;60.058;30.346;2023-04-01T22:56:59;2.50;;;1.75;;
50649;SDS011;36621;60.058;30.346;2023-04-01T23:04:37;2.92;;;2.25;;
50649;SDS011;36621;60.058;30.346;2023-04-01T23:12:12;4.55;;;2.38;;
50649;SDS011;36621;60.058;30.346;2023-04-01T23:19:49;5.63;;;2.42;;
50649;SDS011;36621;60.058;30.346;2023-04-01T23:35:02;5.75;;;3.00;;
50649;SDS011;36621;60.058;30.346;2023-04-01T23:42:37;5.47;;;2.80;;
50649;SDS011;36621;60.058;30.346;2023-04-01T23:50:13;4.90;;;2.40;;
50649;SDS011;36621;60.058;30.346;2023-04-01T23:58:00;4.18;;;2.53;;
